createdAt,value
2022-10-31T00:04:26.835Z,13.19
2022-10-31T00:10:28.707Z,13.17
2022-10-31T00:16:31.322Z,13.02
2022-10-31T00:28:53.102Z,12.82
2022-10-31T00:36:00.765Z,12.80
2022-10-31T00:42:02.777Z,12.95
2022-10-31T00:48:48.254Z,12.97
2022-10-31T00:54:50.303Z,12.85
2022-10-31T01:00:57.920Z,12.77
2022-10-31T01:06:59.994Z,12.62
2022-10-31T01:13:02.100Z,12.56
2022-10-31T01:19:04.171Z,12.29
2022-10-31T01:25:07.218Z,12.09
2022-10-31T01:31:10.409Z,11.99
2022-10-31T01:37:12.499Z,11.83
2022-10-31T01:43:15.224Z,11.72
2022-10-31T01:49:25.767Z,11.79
2022-10-31T01:55:42.486Z,11.99
2022-10-31T02:01:46.803Z,12.08
2022-10-31T02:08:28.057Z,12.06
2022-10-31T02:14:32.219Z,11.95
2022-10-31T02:21:40.610Z,12.03
2022-10-31T02:28:08.525Z,11.92
2022-10-31T02:34:20.105Z,11.86
2022-10-31T02:41:11.199Z,11.68
2022-10-31T02:47:55.418Z,11.66
2022-10-31T02:53:58.900Z,11.60
2022-10-31T03:00:07.332Z,11.64
2022-10-31T03:06:37.267Z,11.70
2022-10-31T03:13:07.362Z,11.61
2022-10-31T03:19:18.925Z,11.58
2022-10-31T03:25:20.924Z,11.64
2022-10-31T03:31:30.428Z,11.71
2022-10-31T03:37:54.963Z,11.62
2022-10-31T03:44:09.498Z,11.46
2022-10-31T03:50:14.442Z,11.42
2022-10-31T03:56:40.600Z,11.43
2022-10-31T04:02:57.973Z,11.33
2022-10-31T04:09:05.670Z,11.23
2022-10-31T04:15:10.602Z,11.13
2022-10-31T04:21:12.495Z,11.07
2022-10-31T04:27:14.355Z,10.90
2022-10-31T04:33:16.888Z,10.72
2022-10-31T04:39:22.751Z,10.68
2022-10-31T04:45:28.704Z,10.49
2022-10-31T04:51:30.595Z,10.49
2022-10-31T04:57:32.473Z,10.57
2022-10-31T05:03:34.381Z,10.66
2022-10-31T05:09:36.303Z,10.59
2022-10-31T05:15:38.366Z,10.49
2022-10-31T05:21:40.287Z,10.30
2022-10-31T05:27:48.441Z,10.27
2022-10-31T05:33:50.446Z,10.25
2022-10-31T05:39:52.330Z,10.13
2022-10-31T05:45:57.758Z,10.09
2022-10-31T05:51:59.699Z,9.99
2022-10-31T05:58:02.184Z,9.93
2022-10-31T06:04:04.307Z,9.99
2022-10-31T06:10:09.041Z,10.02
2022-10-31T06:16:10.923Z,10.18
2022-10-31T06:22:33.921Z,10.33
2022-10-31T06:28:53.286Z,10.46
2022-10-31T06:34:55.396Z,10.55
2022-10-31T06:49:49.533Z,10.92
2022-10-31T06:55:51.520Z,11.17
2022-10-31T07:01:56.731Z,11.21
2022-10-31T07:08:05.741Z,11.30
2022-10-31T07:14:13.522Z,11.37
2022-10-31T07:20:18.872Z,11.67
2022-10-31T07:26:20.966Z,12.12
2022-10-31T07:32:23.367Z,12.46
2022-10-31T07:38:25.233Z,12.72
2022-10-31T07:44:27.134Z,12.80
2022-10-31T07:50:35.265Z,12.83
2022-10-31T07:56:37.158Z,12.78
2022-10-31T08:02:39.302Z,12.72
2022-10-31T08:08:41.251Z,12.74
2022-10-31T08:14:43.278Z,12.74
2022-10-31T08:20:45.248Z,12.90
2022-10-31T08:26:48.299Z,12.97
2022-10-31T08:33:13.272Z,12.89
2022-10-31T08:39:15.185Z,12.97
2022-10-31T08:45:17.081Z,13.03
2022-10-31T08:51:20.189Z,13.25
2022-10-31T08:57:22.127Z,13.31
2022-10-31T09:03:30.165Z,13.43
2022-10-31T09:09:32.061Z,13.54
2022-10-31T09:22:26.328Z,13.95
2022-10-31T09:28:28.252Z,14.13
2022-10-31T09:34:30.843Z,14.55
2022-10-31T09:40:38.731Z,14.85
2022-10-31T09:47:05.657Z,15.21
2022-10-31T09:53:18.487Z,15.40
2022-10-31T09:59:36.062Z,15.70
2022-10-31T10:05:55.670Z,15.91
2022-10-31T10:12:15.914Z,16.18
2022-10-31T10:18:38.909Z,16.45
2022-10-31T10:24:56.040Z,16.61
2022-10-31T10:31:15.825Z,16.52
2022-10-31T10:45:15.579Z,17.03
2022-10-31T10:52:02.803Z,17.32
2022-10-31T10:58:12.053Z,17.72
2022-10-31T11:04:35.370Z,17.89
2022-10-31T11:10:37.468Z,18.05
2022-10-31T11:16:48.572Z,18.47
2022-10-31T11:23:21.436Z,18.48
2022-10-31T11:29:26.743Z,18.69
2022-10-31T11:35:32.754Z,18.80
2022-10-31T11:41:39.714Z,19.37
2022-10-31T11:47:52.940Z,19.31
2022-10-31T11:54:06.000Z,19.75
2022-10-31T12:00:34.752Z,20.00
2022-10-31T12:06:43.626Z,20.63
2022-10-31T12:20:31.542Z,21.29
2022-10-31T12:26:40.760Z,21.90
2022-10-31T12:33:20.195Z,22.33
2022-10-31T12:39:26.793Z,22.44
2022-10-31T12:45:49.662Z,22.08
2022-10-31T12:52:06.384Z,21.95
2022-10-31T12:58:32.459Z,21.77
2022-10-31T13:05:03.324Z,21.54
2022-10-31T13:11:22.491Z,21.41
2022-10-31T13:17:42.675Z,21.44
2022-10-31T13:23:51.205Z,21.34
2022-10-31T13:29:59.746Z,20.94
2022-10-31T13:36:35.429Z,20.44
2022-10-31T13:43:15.580Z,20.05
2022-10-31T13:49:29.457Z,19.81
2022-10-31T13:55:51.243Z,19.59
2022-10-31T14:02:01.368Z,19.31
2022-10-31T14:08:07.515Z,19.13
2022-10-31T14:14:13.662Z,18.95
2022-10-31T14:20:15.827Z,18.62
2022-10-31T14:26:22.184Z,18.47
2022-10-31T14:32:28.694Z,18.37
2022-10-31T14:38:49.749Z,18.24
2022-10-31T14:45:15.887Z,18.04
2022-10-31T14:51:26.348Z,18.04
2022-10-31T14:57:37.800Z,17.64
2022-10-31T15:04:10.122Z,17.89
2022-10-31T15:10:33.369Z,17.61
2022-10-31T15:16:44.252Z,17.59
2022-10-31T15:22:46.969Z,17.60
2022-10-31T15:29:04.706Z,17.32
2022-10-31T15:35:11.684Z,17.36
2022-10-31T15:41:35.820Z,17.13
2022-10-31T15:47:38.705Z,16.86
2022-10-31T15:53:50.826Z,16.61
2022-10-31T15:59:53.933Z,16.51
2022-10-31T16:06:02.874Z,16.41
2022-10-31T16:12:04.867Z,16.52
2022-10-31T16:18:12.361Z,16.43
2022-10-31T16:24:31.626Z,16.36
2022-10-31T16:30:46.800Z,16.35
2022-10-31T16:37:04.443Z,16.63
2022-10-31T16:43:10.127Z,16.33
2022-10-31T16:49:12.716Z,16.25
2022-10-31T16:55:16.731Z,16.42
2022-10-31T17:01:18.794Z,16.48
2022-10-31T17:07:20.731Z,16.11
2022-10-31T17:13:27.675Z,16.01
2022-10-31T17:19:29.814Z,15.95
2022-10-31T17:25:32.143Z,15.93
2022-10-31T17:31:36.708Z,15.89
2022-10-31T17:37:39.922Z,15.97
2022-10-31T17:43:41.995Z,15.85
2022-10-31T17:49:43.916Z,15.87
2022-10-31T17:55:45.991Z,15.89
2022-10-31T18:01:48.036Z,15.65
2022-10-31T18:07:51.233Z,15.74
2022-10-31T18:13:57.599Z,15.57
2022-10-31T18:19:59.555Z,15.47
2022-10-31T18:26:01.640Z,15.50
2022-10-31T18:32:09.062Z,15.73
2022-10-31T18:38:28.043Z,15.60
2022-10-31T18:44:30.514Z,15.51
2022-10-31T18:50:32.653Z,15.34
2022-10-31T18:56:34.587Z,15.21
2022-10-31T19:02:36.779Z,15.12
2022-10-31T19:08:39.600Z,15.01
2022-10-31T19:14:41.550Z,14.76
2022-10-31T19:20:44.000Z,14.82
2022-10-31T19:26:46.069Z,14.69
2022-10-31T19:32:48.647Z,14.69
2022-10-31T19:38:54.244Z,14.43
2022-10-31T19:44:56.664Z,14.78
2022-10-31T19:51:08.279Z,14.69
2022-10-31T19:57:48.918Z,14.78
2022-10-31T20:04:34.311Z,14.96
2022-10-31T20:10:36.394Z,15.16
2022-10-31T20:16:39.956Z,15.35
2022-10-31T20:22:42.433Z,15.19
2022-10-31T20:28:48.579Z,15.28
2022-10-31T20:42:42.400Z,15.28
2022-10-31T20:48:44.744Z,15.09
2022-10-31T20:54:57.398Z,14.90
2022-10-31T21:07:17.493Z,14.66
2022-10-31T21:13:20.088Z,14.57
2022-10-31T21:19:22.123Z,14.65
2022-10-31T21:25:24.117Z,14.21
2022-10-31T21:31:34.812Z,13.98
2022-10-31T21:37:36.964Z,13.99
2022-10-31T21:43:41.894Z,14.09
2022-10-31T21:49:44.702Z,14.01
2022-10-31T21:56:04.283Z,13.99
2022-10-31T22:02:10.246Z,14.05
2022-10-31T22:08:12.865Z,14.01
2022-10-31T22:14:16.076Z,13.90
2022-10-31T22:20:18.095Z,13.84
2022-10-31T22:26:20.895Z,13.45
2022-10-31T22:32:23.502Z,13.36
2022-10-31T22:44:42.917Z,13.63
2022-10-31T22:50:44.939Z,13.51
2022-10-31T22:56:47.185Z,13.42
2022-10-31T23:02:49.054Z,13.47
2022-10-31T23:08:52.407Z,13.20
2022-10-31T23:14:54.341Z,13.06
2022-10-31T23:20:56.315Z,12.87
2022-10-31T23:27:12.245Z,12.78
2022-10-31T23:33:14.196Z,12.73
2022-10-31T23:39:18.805Z,13.02
2022-10-31T23:45:23.356Z,13.03
2022-10-31T23:51:25.281Z,12.88
2022-10-31T23:57:27.214Z,12.97
